createdAt,value
2019-02-06T00:02:11.393Z,98581.56
2019-02-06T00:05:18.444Z,98574.67
2019-02-06T00:08:25.303Z,98572.95
2019-02-06T00:11:35.008Z,98575.08
2019-02-06T00:14:40.588Z,98579.41
2019-02-06T00:17:47.868Z,98568.24
2019-02-06T00:20:54.699Z,98570.80
2019-02-06T00:24:00.955Z,98568.64
2019-02-06T00:27:07.755Z,98563.49
2019-02-06T00:30:14.860Z,98560.50
2019-02-06T00:33:21.353Z,98548.02
2019-02-06T00:36:27.979Z,98548.03
2019-02-06T00:39:34.949Z,98540.73
2019-02-06T00:42:41.693Z,98543.30
2019-02-06T00:45:48.732Z,98550.20
2019-02-06T00:48:55.338Z,98548.06
2019-02-06T00:52:03.742Z,98548.48
2019-02-06T00:55:10.396Z,98559.23
2019-02-06T00:58:16.878Z,98553.23
2019-02-06T01:01:23.580Z,98557.97
2019-02-06T01:04:29.792Z,98557.53
2019-02-06T01:07:36.387Z,98551.09
2019-02-06T01:10:42.748Z,98543.33
2019-02-06T01:13:49.357Z,98545.48
2019-02-06T01:16:56.046Z,98546.78
2019-02-06T01:20:02.266Z,98542.46
2019-02-06T01:23:09.576Z,98556.23
2019-02-06T01:26:15.793Z,98560.53
2019-02-06T01:29:24.168Z,98564.82
2019-02-06T01:32:30.559Z,98569.59
2019-02-06T01:35:37.203Z,98571.27
2019-02-06T01:38:44.142Z,98568.28
2019-02-06T01:41:50.436Z,98558.82
2019-02-06T01:44:57.459Z,98551.08
2019-02-06T01:48:03.884Z,98541.19
2019-02-06T01:51:10.375Z,98543.33
2019-02-06T01:54:17.081Z,98548.06
2019-02-06T01:57:23.497Z,98543.77
2019-02-06T02:00:30.268Z,98539.02
2019-02-06T02:03:37.785Z,98543.34
2019-02-06T02:06:44.224Z,98535.59
2019-02-06T02:09:50.959Z,98535.17
2019-02-06T02:12:57.471Z,98533.01
2019-02-06T02:16:04.049Z,98530.42
2019-02-06T02:19:10.418Z,98521.41
2019-02-06T02:22:16.948Z,98522.28
2019-02-06T02:25:24.065Z,98516.69
2019-02-06T02:28:30.626Z,98509.81
2019-02-06T02:31:37.619Z,98511.06
2019-02-06T02:34:44.053Z,98498.59
2019-02-06T02:37:51.685Z,98499.91
2019-02-06T02:40:59.267Z,98495.16
2019-02-06T02:44:05.775Z,98490.45
2019-02-06T02:47:13.033Z,98484.00
2019-02-06T02:50:19.670Z,98474.55
2019-02-06T02:53:26.365Z,98472.41
2019-02-06T02:56:32.996Z,98468.10
2019-02-06T02:59:39.951Z,98465.12
2019-02-06T03:02:55.216Z,98457.78
2019-02-06T03:06:01.754Z,98457.80
2019-02-06T03:09:12.539Z,98447.45
2019-02-06T03:12:20.203Z,98445.33
2019-02-06T03:15:28.919Z,98443.17
2019-02-06T03:18:35.485Z,98440.19
2019-02-06T03:21:42.731Z,98440.59
2019-02-06T03:24:48.817Z,98438.03
2019-02-06T03:27:55.186Z,98442.75
2019-02-06T03:31:01.723Z,98438.47
2019-02-06T03:34:08.022Z,98445.75
2019-02-06T03:37:14.799Z,98440.61
2019-02-06T03:40:21.363Z,98436.28
2019-02-06T03:43:27.864Z,98433.31
2019-02-06T03:46:35.362Z,98431.14
2019-02-06T03:49:42.801Z,98426.42
2019-02-06T03:52:50.172Z,98424.71
2019-02-06T03:55:56.646Z,98438.46
2019-02-06T03:59:03.302Z,98428.56
2019-02-06T04:02:10.259Z,98438.45
2019-02-06T04:05:16.779Z,98427.70
2019-02-06T04:08:23.236Z,98427.72
2019-02-06T04:11:29.918Z,98425.56
2019-02-06T04:14:36.325Z,98428.58
2019-02-06T04:17:42.904Z,98423.84
2019-02-06T04:20:49.335Z,98428.56
2019-02-06T04:23:56.610Z,98425.55
2019-02-06T04:27:03.465Z,98431.56
2019-02-06T04:30:11.122Z,98423.84
2019-02-06T04:33:17.338Z,98422.13
2019-02-06T04:36:23.908Z,98425.13
2019-02-06T04:39:30.448Z,98419.11
2019-02-06T04:42:37.313Z,98411.81
2019-02-06T04:45:44.568Z,98408.78
2019-02-06T04:48:51.015Z,98402.77
2019-02-06T04:51:57.651Z,98405.34
2019-02-06T04:55:04.456Z,98400.17
2019-02-06T04:58:11.009Z,98405.32
2019-02-06T05:01:17.397Z,98409.64
2019-02-06T05:04:23.802Z,98407.90
2019-02-06T05:07:30.214Z,98411.34
2019-02-06T05:10:36.554Z,98407.06
2019-02-06T05:13:43.692Z,98410.49
2019-02-06T05:16:50.352Z,98409.16
2019-02-06T05:19:57.647Z,98415.62
2019-02-06T05:23:04.205Z,98425.93
2019-02-06T05:26:11.327Z,98420.73
2019-02-06T05:29:18.076Z,98425.06
2019-02-06T05:32:24.646Z,98431.07
2019-02-06T05:35:32.304Z,98425.04
2019-02-06T05:38:38.443Z,98420.77
2019-02-06T05:41:44.944Z,98418.59
2019-02-06T05:44:51.575Z,98425.11
2019-02-06T05:47:59.088Z,98428.08
2019-02-06T05:51:06.254Z,98419.03
2019-02-06T05:54:12.539Z,98436.66
2019-02-06T05:57:19.086Z,98428.99
2019-02-06T06:00:30.878Z,98423.31
2019-02-06T06:03:37.574Z,98430.69
2019-02-06T06:06:44.155Z,98431.95
2019-02-06T06:09:50.880Z,98428.92
2019-02-06T06:12:58.390Z,98429.79
2019-02-06T06:16:05.044Z,98434.50
2019-02-06T06:19:11.869Z,98437.09
2019-02-06T06:22:18.379Z,98434.06
2019-02-06T06:25:25.198Z,98427.59
2019-02-06T06:28:31.502Z,98413.42
2019-02-06T06:31:38.203Z,98419.86
2019-02-06T06:34:44.879Z,98415.12
2019-02-06T06:37:59.390Z,98408.26
2019-02-06T06:40:59.961Z,98404.78
2019-02-06T06:44:06.893Z,98402.63
2019-02-06T06:47:13.810Z,98400.88
2019-02-06T06:50:22.425Z,98397.02
2019-02-06T06:53:28.909Z,98399.98
2019-02-06T06:56:36.173Z,98394.84
2019-02-06T06:59:42.699Z,98405.60
2019-02-06T07:02:49.076Z,98403.84
2019-02-06T07:05:56.013Z,98399.98
2019-02-06T07:09:02.480Z,98394.34
2019-02-06T07:12:10.502Z,98394.69
2019-02-06T07:15:19.448Z,98391.22
2019-02-06T07:18:26.174Z,98388.95
2019-02-06T07:21:33.937Z,98390.61
2019-02-06T07:24:42.179Z,98388.03
2019-02-06T07:27:49.190Z,98387.13
2019-02-06T07:30:55.957Z,98385.83
2019-02-06T07:34:03.003Z,98387.05
2019-02-06T07:37:09.707Z,98387.45
2019-02-06T07:40:17.006Z,98386.95
2019-02-06T07:43:24.014Z,98383.83
2019-02-06T07:46:30.792Z,98387.63
2019-02-06T07:49:37.512Z,98390.22
2019-02-06T07:52:44.350Z,98391.34
2019-02-06T07:55:51.181Z,98396.78
2019-02-06T07:58:58.107Z,98396.16
2019-02-06T08:02:04.602Z,98392.97
2019-02-06T08:05:13.503Z,98392.87
2019-02-06T08:08:19.879Z,98390.66
2019-02-06T08:11:26.129Z,98391.34
2019-02-06T08:14:32.774Z,98390.37
2019-02-06T08:17:39.278Z,98383.37
2019-02-06T08:20:45.555Z,98388.40
2019-02-06T08:23:53.336Z,98392.58
2019-02-06T08:26:59.825Z,98390.31
2019-02-06T08:30:09.722Z,98390.90
2019-02-06T08:33:16.122Z,98390.27
2019-02-06T08:36:22.950Z,98397.43
2019-02-06T08:39:29.671Z,98393.27
2019-02-06T08:42:36.231Z,98389.97
2019-02-06T08:45:42.599Z,98386.77
2019-02-06T08:48:49.092Z,98386.10
2019-02-06T08:51:55.430Z,98380.19
2019-02-06T08:55:01.707Z,98379.87
2019-02-06T08:58:08.924Z,98377.77
2019-02-06T09:01:15.098Z,98380.30
2019-02-06T09:04:21.876Z,98379.88
2019-02-06T09:07:28.361Z,98384.19
2019-02-06T09:10:35.031Z,98372.67
2019-02-06T09:13:41.893Z,98370.45
2019-02-06T09:16:48.258Z,98365.81
2019-02-06T09:19:54.870Z,98361.38
2019-02-06T09:23:01.547Z,98352.13
2019-02-06T09:26:08.838Z,98345.59
2019-02-06T09:29:15.887Z,98352.99
2019-02-06T09:32:22.890Z,98350.06
2019-02-06T09:35:29.696Z,98345.48
2019-02-06T09:38:37.983Z,98339.59
2019-02-06T09:41:45.204Z,98336.81
2019-02-06T09:44:51.750Z,98334.71
2019-02-06T09:47:58.114Z,98328.93
2019-02-06T09:51:04.872Z,98325.05
2019-02-06T09:54:12.379Z,98324.69
2019-02-06T09:57:18.870Z,98323.23
2019-02-06T10:00:31.218Z,98318.84
2019-02-06T10:03:38.680Z,98322.50
2019-02-06T10:06:45.532Z,98311.95
2019-02-06T10:09:52.328Z,98306.87
2019-02-06T10:13:00.304Z,98303.13
2019-02-06T10:16:07.450Z,98299.00
2019-02-06T10:19:14.191Z,98294.18
2019-02-06T10:22:20.434Z,98290.14
2019-02-06T10:25:27.031Z,98283.45
2019-02-06T10:28:33.684Z,98287.81
2019-02-06T10:31:40.028Z,98280.48
2019-02-06T10:34:46.602Z,98281.56
2019-02-06T10:37:53.388Z,98281.77
2019-02-06T10:41:00.487Z,98273.65
2019-02-06T10:44:07.740Z,98262.77
2019-02-06T10:47:14.450Z,98257.44
2019-02-06T10:50:23.105Z,98254.43
2019-02-06T10:53:29.371Z,98255.23
2019-02-06T10:56:37.076Z,98251.36
2019-02-06T10:59:44.306Z,98251.96
2019-02-06T11:02:51.667Z,98240.52
2019-02-06T11:05:58.275Z,98241.52
2019-02-06T11:09:07.050Z,98240.03
2019-02-06T11:12:15.296Z,98230.24
2019-02-06T11:15:22.486Z,98229.89
2019-02-06T11:18:29.410Z,98220.14
2019-02-06T11:21:38.540Z,98221.12
2019-02-06T11:24:45.511Z,98214.80
2019-02-06T11:27:52.139Z,98209.37
2019-02-06T11:30:59.030Z,98208.80
2019-02-06T11:34:06.032Z,98203.27
2019-02-06T11:37:12.691Z,98199.39
2019-02-06T11:40:21.633Z,98192.12
2019-02-06T11:43:28.210Z,98185.72
2019-02-06T11:46:35.342Z,98188.05
2019-02-06T11:49:43.789Z,98186.41
2019-02-06T11:52:50.416Z,98182.77
2019-02-06T11:55:57.465Z,98181.53
2019-02-06T11:59:04.302Z,98180.59
2019-02-06T12:02:11.472Z,98181.20
2019-02-06T12:05:18.327Z,98172.48
2019-02-06T12:08:24.972Z,98169.48
2019-02-06T12:11:31.443Z,98160.62
2019-02-06T12:14:37.735Z,98158.32
2019-02-06T12:17:44.575Z,98146.84
2019-02-06T12:20:51.243Z,98135.84
2019-02-06T12:23:57.675Z,98133.52
2019-02-06T12:27:04.868Z,98129.36
2019-02-06T12:30:18.748Z,98122.58
2019-02-06T12:33:25.973Z,98119.98
2019-02-06T12:36:32.911Z,98112.16
2019-02-06T12:39:39.814Z,98107.06
2019-02-06T12:42:46.275Z,98099.77
2019-02-06T12:45:53.055Z,98102.84
2019-02-06T12:49:00.023Z,98098.22
2019-02-06T12:52:07.213Z,98095.02
2019-02-06T12:55:19.618Z,98087.15
2019-02-06T12:58:26.329Z,98090.49
2019-02-06T13:01:36.546Z,98087.28
2019-02-06T13:04:42.912Z,98084.52
2019-02-06T13:07:50.847Z,98084.52
2019-02-06T13:10:57.806Z,98081.28
2019-02-06T13:14:04.932Z,98084.14
2019-02-06T13:17:12.676Z,98085.77
2019-02-06T13:20:24.269Z,98079.26
2019-02-06T13:23:30.916Z,98083.91
2019-02-06T13:26:38.287Z,98075.28
2019-02-06T13:29:45.256Z,98072.84
2019-02-06T13:32:51.732Z,98066.05
2019-02-06T13:35:58.467Z,98061.11
2019-02-06T13:39:08.020Z,98059.27
2019-02-06T13:42:15.031Z,98056.35
2019-02-06T13:45:24.252Z,98052.05
2019-02-06T13:48:33.660Z,98048.28
2019-02-06T13:51:39.414Z,98056.18
2019-02-06T13:54:45.888Z,98058.25
2019-02-06T13:57:52.492Z,98045.45
2019-02-06T14:00:59.284Z,98047.10
2019-02-06T14:04:05.923Z,98048.87
2019-02-06T14:07:12.343Z,98047.50
2019-02-06T14:10:22.673Z,98049.77
2019-02-06T14:13:29.300Z,98049.23
2019-02-06T14:16:36.252Z,98050.64
2019-02-06T14:19:42.749Z,98045.75
2019-02-06T14:23:01.628Z,98047.91
2019-02-06T14:26:19.910Z,98044.95
2019-02-06T14:30:02.066Z,98046.30
2019-02-06T14:33:42.776Z,98045.48
2019-02-06T14:37:27.583Z,98040.89
2019-02-06T14:41:08.153Z,98042.96
2019-02-06T14:44:58.803Z,98041.03
2019-02-06T14:48:34.350Z,98044.88
2019-02-06T14:52:11.498Z,98038.16
2019-02-06T14:55:30.333Z,98035.53
2019-02-06T14:59:16.546Z,98038.97
2019-02-06T15:03:16.538Z,98031.11
2019-02-06T15:07:01.487Z,98025.17
2019-02-06T15:10:32.320Z,98028.14
2019-02-06T15:14:32.378Z,98024.77
2019-02-06T15:18:08.413Z,98017.73
2019-02-06T15:21:50.329Z,98018.03
2019-02-06T15:25:39.405Z,98009.00
2019-02-06T15:29:41.810Z,98013.66
2019-02-06T15:33:37.463Z,98015.55
2019-02-06T15:37:24.385Z,98007.84
2019-02-06T15:40:51.564Z,98010.62
2019-02-06T15:44:24.512Z,98001.18
2019-02-06T15:47:43.681Z,98013.98
2019-02-06T15:51:46.738Z,98008.55
2019-02-06T15:55:37.955Z,98014.12
2019-02-06T15:59:09.133Z,98015.50
2019-02-06T16:02:51.072Z,98010.88
2019-02-06T16:06:32.427Z,98007.86
2019-02-06T16:10:27.356Z,98004.37
2019-02-06T16:13:57.975Z,98004.66
2019-02-06T16:17:52.771Z,98006.25
2019-02-06T16:21:38.775Z,98002.46
2019-02-06T16:25:22.027Z,98010.89
2019-02-06T16:29:03.818Z,97999.26
2019-02-06T16:32:28.744Z,97998.63
2019-02-06T16:36:19.240Z,97991.49
2019-02-06T16:39:36.974Z,97994.00
2019-02-06T16:43:18.853Z,97999.96
2019-02-06T16:47:21.343Z,97990.68
2019-02-06T16:51:14.730Z,97994.05
2019-02-06T16:54:47.734Z,97991.78
2019-02-06T16:58:45.176Z,97995.48
2019-02-06T17:02:22.324Z,98003.73
2019-02-06T17:05:57.675Z,97999.76
2019-02-06T17:09:43.902Z,98002.30
2019-02-06T17:13:49.376Z,97997.16
2019-02-06T17:17:08.060Z,98000.20
2019-02-06T17:20:55.337Z,97985.98
2019-02-06T17:24:42.279Z,97990.05
2019-02-06T17:28:14.140Z,97996.63
2019-02-06T17:32:03.111Z,97986.06
2019-02-06T17:35:55.868Z,97984.29
2019-02-06T17:39:40.543Z,97980.14
2019-02-06T17:43:04.474Z,97980.44
2019-02-06T17:46:57.235Z,97973.16
2019-02-06T17:50:32.851Z,97971.87
2019-02-06T17:54:38.869Z,97979.89
2019-02-06T17:57:45.845Z,97976.89
2019-02-06T18:01:08.044Z,97971.45
2019-02-06T18:04:30.046Z,97965.86
2019-02-06T18:07:37.025Z,97969.25
2019-02-06T18:10:44.217Z,97963.61
2019-02-06T18:13:53.103Z,97965.87
2019-02-06T18:16:59.766Z,97963.33
2019-02-06T18:20:09.250Z,97957.70
2019-02-06T18:23:16.099Z,97949.78
2019-02-06T18:26:22.729Z,97949.27
2019-02-06T18:29:29.783Z,97952.80
2019-02-06T18:32:37.234Z,97946.48
2019-02-06T18:35:44.317Z,97936.69
2019-02-06T18:38:52.310Z,97945.98
2019-02-06T18:42:00.005Z,97937.98
2019-02-06T18:45:09.562Z,97941.44
2019-02-06T18:48:16.677Z,97935.14
2019-02-06T18:51:24.037Z,97925.61
2019-02-06T18:54:30.607Z,97923.62
2019-02-06T18:57:38.226Z,97921.53
2019-02-06T19:00:44.848Z,97920.37
2019-02-06T19:03:51.891Z,97920.48
2019-02-06T19:06:58.988Z,97917.63
2019-02-06T19:10:08.136Z,97912.17
2019-02-06T19:13:15.613Z,97915.55
2019-02-06T19:16:22.423Z,97915.29
2019-02-06T19:19:31.754Z,97912.09
2019-02-06T19:22:38.795Z,97914.42
2019-02-06T19:25:45.258Z,97915.30
2019-02-06T19:28:52.359Z,97916.29
2019-02-06T19:31:59.329Z,97912.41
2019-02-06T19:35:07.632Z,97909.12
2019-02-06T19:38:14.592Z,97909.59
2019-02-06T19:41:22.159Z,97903.67
2019-02-06T19:44:28.964Z,97904.52
2019-02-06T19:47:35.695Z,97905.13
2019-02-06T19:50:42.952Z,97894.71
2019-02-06T19:53:54.849Z,97887.97
2019-02-06T19:57:01.933Z,97886.34
2019-02-06T20:00:11.066Z,97891.06
2019-02-06T20:03:18.148Z,97884.80
2019-02-06T20:06:32.936Z,97872.32
2019-02-06T20:09:39.871Z,97865.10
2019-02-06T20:12:47.836Z,97861.50
2019-02-06T20:15:55.041Z,97858.70
2019-02-06T20:19:01.555Z,97849.34
2019-02-06T20:22:08.996Z,97845.75
2019-02-06T20:25:15.943Z,97832.08
2019-02-06T20:28:22.683Z,97818.22
2019-02-06T20:31:29.681Z,97829.30
2019-02-06T20:34:36.951Z,97839.22
2019-02-06T20:37:43.748Z,97857.50
2019-02-06T20:40:51.724Z,97860.05
2019-02-06T20:43:58.656Z,97856.92
2019-02-06T20:47:05.328Z,97854.38
2019-02-06T20:50:16.217Z,97842.80
2019-02-06T20:53:23.141Z,97836.37
2019-02-06T20:56:30.365Z,97835.81
2019-02-06T20:59:37.457Z,97834.23
2019-02-06T21:02:43.967Z,97826.52
2019-02-06T21:05:50.485Z,97823.05
2019-02-06T21:08:57.114Z,97814.98
2019-02-06T21:12:03.963Z,97813.19
2019-02-06T21:15:11.917Z,97811.11
2019-02-06T21:18:18.788Z,97820.21
2019-02-06T21:21:25.715Z,97814.08
2019-02-06T21:24:32.669Z,97811.05
2019-02-06T21:27:40.330Z,97814.89
2019-02-06T21:30:47.915Z,97817.97
2019-02-06T21:33:54.971Z,97812.89
2019-02-06T21:37:01.650Z,97810.60
2019-02-06T21:40:14.616Z,97803.52
2019-02-06T21:43:21.317Z,97801.41
2019-02-06T21:46:28.242Z,97799.78
2019-02-06T21:49:35.439Z,97800.56
2019-02-06T21:52:42.270Z,97793.66
2019-02-06T21:55:52.487Z,97786.80
2019-02-06T21:58:59.283Z,97774.12
2019-02-06T22:02:06.050Z,97763.83
2019-02-06T22:05:14.389Z,97765.18
2019-02-06T22:08:22.207Z,97757.66
2019-02-06T22:11:28.939Z,97755.22
2019-02-06T22:14:35.440Z,97744.98
2019-02-06T22:17:43.957Z,97742.30
2019-02-06T22:20:52.955Z,97736.56
2019-02-06T22:23:59.318Z,97746.63
2019-02-06T22:27:05.717Z,97734.70
2019-02-06T22:30:24.668Z,97736.83
2019-02-06T22:33:31.560Z,97738.92
2019-02-06T22:36:38.712Z,97736.48
2019-02-06T22:39:45.396Z,97735.20
2019-02-06T22:42:52.352Z,97724.35
2019-02-06T22:45:59.441Z,97728.98
2019-02-06T22:49:06.507Z,97730.21
2019-02-06T22:52:12.786Z,97722.25
2019-02-06T22:55:19.196Z,97722.70
2019-02-06T22:58:25.870Z,97719.22
2019-02-06T23:01:43.831Z,97720.91
2019-02-06T23:04:50.451Z,97709.81
2019-02-06T23:07:57.893Z,97699.08
2019-02-06T23:11:04.716Z,97689.19
2019-02-06T23:14:17.519Z,97688.70
2019-02-06T23:17:20.041Z,97681.12
2019-02-06T23:20:28.863Z,97668.81
2019-02-06T23:23:35.347Z,97669.89
2019-02-06T23:26:41.715Z,97660.45
2019-02-06T23:29:48.255Z,97647.13
2019-02-06T23:32:54.884Z,97643.74
2019-02-06T23:36:01.386Z,97641.16
2019-02-06T23:39:15.676Z,97630.63
2019-02-06T23:42:22.220Z,97640.50
2019-02-06T23:45:28.771Z,97632.95
2019-02-06T23:48:35.705Z,97632.59
2019-02-06T23:51:42.336Z,97628.09
2019-02-06T23:54:49.308Z,97633.69
2019-02-06T23:57:56.529Z,97644.38
